Time;durP1;ratioP1;P1;durP2;ratioP2;P2;SDS_P1;SDS_P2;PMS_P1;PMS_P2;Temp;Humidity;BMP_temperature;BMP_pressure;BME280_temperature;BME280_humidity;BME280_pressure;Samples;Min_cycle;Max_cycle;Signal;HPM_P1;HPM_P2
2021/10/30 00:00:54;;;;;;;6.22;3.60;;;;;;;13.08;93.79;100515.25;4992947;28;20050;-47
2021/10/30 00:03:23;;;;;;;8.10;3.63;;;;;;;13.09;94.01;100505.97;4993269;28;20081;-47
2021/10/30 00:05:51;;;;;;;6.97;3.70;;;;;;;13.05;93.81;100515.84;4992890;28;20113;-46
2021/10/30 00:08:19;;;;;;;7.30;3.88;;;;;;;13.00;93.97;100507.72;4992945;28;20050;-47
2021/10/30 00:10:47;;;;;;;6.32;3.90;;;;;;;12.99;94.62;100500.63;4992840;28;20041;-47
2021/10/30 00:13:14;;;;;;;5.57;3.63;;;;;;;13.00;94.14;100503.06;4992673;28;20042;-47
2021/10/30 00:15:42;;;;;;;7.05;4.18;;;;;;;13.02;94.22;100502.78;4992898;28;20493;-45
2021/10/30 00:18:09;;;;;;;7.28;3.92;;;;;;;13.01;94.18;100498.41;4992306;28;20038;-47
2021/10/30 00:20:37;;;;;;;8.45;4.18;;;;;;;12.99;94.12;100500.63;4992766;28;20058;-48
2021/10/30 00:23:05;;;;;;;6.88;3.92;;;;;;;12.98;94.38;100493.50;4992793;28;20048;-46
2021/10/30 00:25:32;;;;;;;6.78;4.25;;;;;;;12.99;94.59;100495.97;4993034;28;20105;-47
2021/10/30 00:28:00;;;;;;;7.50;4.05;;;;;;;13.02;94.53;100494.56;4991970;28;20042;-46
2021/10/30 00:30:27;;;;;;;6.82;4.10;;;;;;;13.02;94.13;100485.56;4991374;28;20042;-47
2021/10/30 00:32:55;;;;;;;8.60;4.20;;;;;;;13.00;94.57;100485.84;4992307;28;20105;-47
2021/10/30 00:35:23;;;;;;;6.65;4.28;;;;;;;12.98;94.69;100490.78;4993022;28;20062;-46
2021/10/30 00:37:51;;;;;;;8.70;4.18;;;;;;;12.98;94.54;100477.09;4992407;28;20066;-46
2021/10/30 00:40:18;;;;;;;6.18;4.05;;;;;;;13.00;94.77;100469.44;4992784;28;20054;-48
2021/10/30 00:42:46;;;;;;;6.88;4.10;;;;;;;13.02;94.59;100464.47;4990735;28;20061;-50
2021/10/30 00:45:13;;;;;;;7.70;4.10;;;;;;;13.03;94.82;100466.09;4992348;28;20410;-44
2021/10/30 00:47:41;;;;;;;6.25;4.00;;;;;;;13.03;94.59;100463.38;4992249;28;20046;-47
2021/10/30 00:50:09;;;;;;;6.13;3.92;;;;;;;13.05;94.20;100455.69;4979699;28;20061;-50
2021/10/30 00:52:39;;;;;;;7.50;4.30;;;;;;;13.06;94.01;100460.06;4991199;28;20042;-47
2021/10/30 00:55:10;;;;;;;7.57;4.20;;;;;;;13.05;93.83;100455.69;4992840;28;20042;-46
2021/10/30 00:57:40;;;;;;;7.03;4.28;;;;;;;13.00;94.20;100450.28;4991360;28;20105;-47
2021/10/30 01:00:10;;;;;;;7.85;4.07;;;;;;;12.98;94.24;100452.50;4992448;28;20039;-45
2021/10/30 01:02:38;;;;;;;9.02;4.40;;;;;;;12.98;94.09;100460.69;4992075;28;20039;-46
2021/10/30 01:05:07;;;;;;;7.82;4.03;;;;;;;12.94;94.48;100443.25;4992868;28;20054;-47
2021/10/30 01:07:35;;;;;;;7.45;4.00;;;;;;;12.93;94.19;100444.34;4992085;28;20046;-43
2021/10/30 01:10:03;;;;;;;6.82;3.95;;;;;;;12.90;95.03;100448.50;4992292;28;20046;-46
2021/10/30 01:12:30;;;;;;;6.68;3.83;;;;;;;12.92;94.43;100446.28;4992080;28;20038;-45
2021/10/30 01:14:59;;;;;;;8.93;3.92;;;;;;;12.92;95.02;100450.94;4992291;28;20039;-48
2021/10/30 01:17:26;;;;;;;6.85;3.80;;;;;;;12.90;94.86;100448.50;4990441;28;20043;-47
2021/10/30 01:19:55;;;;;;;6.95;3.67;;;;;;;12.87;94.75;100442.78;4985854;28;20468;-49
2021/10/30 01:22:23;;;;;;;6.78;4.00;;;;;;;12.89;94.52;100437.84;4994462;28;20101;-47
2021/10/30 01:24:52;;;;;;;5.97;3.70;;;;;;;12.91;94.85;100435.63;4995970;28;20035;-47
2021/10/30 01:27:21;;;;;;;8.80;3.92;;;;;;;12.93;94.82;100434.22;4996240;28;20039;-46
2021/10/30 01:29:50;;;;;;;8.13;4.32;;;;;;;12.93;94.84;100422.47;4995984;28;20045;-48
2021/10/30 01:32:19;;;;;;;6.72;4.15;;;;;;;12.95;93.99;100431.22;5010938;28;20130;-44
2021/10/30 01:34:47;;;;;;;8.52;3.90;;;;;;;12.95;93.83;100433.94;4995464;28;20485;-48
2021/10/30 01:37:15;;;;;;;12.57;4.72;;;;;;;12.93;93.79;100426.03;4994476;28;20039;-47
2021/10/30 01:39:42;;;;;;;7.68;4.22;;;;;;;12.90;93.89;100423.88;4995719;28;20042;-46
2021/10/30 01:42:11;;;;;;;7.45;4.32;;;;;;;12.90;94.37;100425.81;4995402;28;20141;-47
2021/10/30 01:44:39;;;;;;;12.40;4.22;;;;;;;12.93;94.39;100426.03;4995654;28;20037;-48
2021/10/30 01:47:07;;;;;;;9.70;4.03;;;;;;;12.95;93.97;100417.53;4995085;28;20100;-47
2021/10/30 01:49:35;;;;;;;7.30;4.25;;;;;;;12.96;93.50;100419.16;4995814;28;20050;-47
2021/10/30 01:52:03;;;;;;;7.78;4.18;;;;;;;12.97;93.95;100421.59;4990963;28;20413;-46
2021/10/30 01:54:30;;;;;;;6.05;3.55;;;;;;;12.98;93.40;100409.53;4995292;28;20093;-44
2021/10/30 01:56:58;;;;;;;5.85;3.80;;;;;;;12.99;93.43;100411.19;4995691;28;20045;-47
2021/10/30 01:59:25;;;;;;;6.65;3.88;;;;;;;12.97;93.35;100401.66;4995060;28;20068;-47
2021/10/30 02:01:53;;;;;;;7.00;4.10;;;;;;;12.98;93.54;100403.28;4995626;28;20046;-47
2021/10/30 02:04:21;;;;;;;7.60;3.60;;;;;;;12.96;93.57;100392.66;4995198;28;20049;-47
2021/10/30 02:06:49;;;;;;;11.80;4.40;;;;;;;12.95;93.14;100390.19;4995099;28;20069;-47
2021/10/30 02:09:17;;;;;;;8.43;4.15;;;;;;;12.96;93.76;100394.53;4995309;28;20050;-47
2021/10/30 02:11:45;;;;;;;6.05;3.90;;;;;;;12.95;93.46;100387.47;4995460;28;20042;-47
2021/10/30 02:14:13;;;;;;;8.35;4.18;;;;;;;12.94;93.29;100383.91;4994610;28;20073;-46
2021/10/30 02:16:40;;;;;;;7.00;4.32;;;;;;;12.94;93.31;100377.63;4995419;28;20046;-46
2021/10/30 02:19:08;;;;;;;8.40;4.20;;;;;;;12.93;93.35;100379.53;4995051;28;20096;-45
2021/10/30 02:21:36;;;;;;;9.82;4.20;;;;;;;12.93;93.75;100365.06;4995011;28;20054;-47
2021/10/30 02:24:04;;;;;;;7.88;4.18;;;;;;;12.92;93.61;100361.53;4995478;28;20050;-47
2021/10/30 02:26:31;;;;;;;8.18;4.10;;;;;;;12.93;93.74;100346.72;4994703;28;20385;-46
2021/10/30 02:28:59;;;;;;;5.43;3.67;;;;;;;12.95;93.57;100346.44;4994571;28;20088;-46
2021/10/30 02:31:27;;;;;;;10.77;4.13;;;;;;;12.96;93.89;100343.41;4994776;28;20409;-48
2021/10/30 02:33:54;;;;;;;7.05;3.72;;;;;;;13.00;93.97;100327.22;4994679;28;20034;-47
2021/10/30 02:36:22;;;;;;;7.55;3.88;;;;;;;13.02;93.24;100318.72;4989509;28;20441;-45
2021/10/30 02:38:50;;;;;;;6.85;4.20;;;;;;;13.02;93.51;100322.28;4994555;28;20046;-47
2021/10/30 02:41:20;;;;;;;6.63;3.70;;;;;;;13.02;93.88;100324.19;4994997;28;20437;-47
2021/10/30 02:43:47;;;;;;;6.78;4.00;;;;;;;13.03;93.52;100320.34;4994035;28;20046;-44
2021/10/30 02:46:15;;;;;;;9.02;4.10;;;;;;;13.05;94.03;100308.00;4993252;28;20045;-47
2021/10/30 02:48:42;;;;;;;7.38;3.72;;;;;;;13.04;93.85;100300.91;4994388;28;20479;-46
2021/10/30 02:51:10;;;;;;;7.70;3.92;;;;;;;13.04;93.84;100311.03;4994540;28;20042;-46
2021/10/30 02:53:40;;;;;;;9.25;3.88;;;;;;;13.02;93.75;100319.53;4994419;28;20477;-46
2021/10/30 02:56:08;;;;;;;9.50;3.83;;;;;;;13.01;93.58;100306.94;4994039;28;20460;-46
2021/10/30 02:58:36;;;;;;;7.60;3.80;;;;;;;13.01;93.85;100312.44;4993399;28;20118;-46
2021/10/30 03:01:05;;;;;;;6.05;3.63;;;;;;;12.99;94.04;100306.47;4994788;28;20050;-46
2021/10/30 03:03:32;;;;;;;11.13;4.25;;;;;;;12.99;93.76;100292.78;4994362;28;20100;-44
2021/10/30 03:06:00;;;;;;;7.05;4.25;;;;;;;12.96;93.71;100288.72;4994211;28;20039;-46
2021/10/30 03:08:28;;;;;;;9.00;4.70;;;;;;;12.96;93.96;100293.38;4993891;28;20046;-45
2021/10/30 03:10:56;;;;;;;6.35;4.10;;;;;;;12.95;94.49;100291.75;4994043;28;20069;-49
2021/10/30 03:13:26;;;;;;;8.90;4.22;;;;;;;12.96;94.33;100277.78;4994184;28;20055;-47
2021/10/30 03:15:55;;;;;;;10.25;4.82;;;;;;;12.98;93.92;100274.75;4994046;28;20129;-47
2021/10/30 03:18:23;;;;;;;11.05;4.55;;;;;;;12.95;94.13;100267.13;4993825;28;20037;-47
2021/10/30 03:20:50;;;;;;;8.18;4.10;;;;;;;12.94;94.14;100270.97;4993816;28;20050;-48
2021/10/30 03:23:18;;;;;;;6.05;4.00;;;;;;;12.97;94.37;100281.34;4994274;28;20066;-47
2021/10/30 03:25:45;;;;;;;7.70;4.45;;;;;;;13.02;94.20;100283.97;4993895;28;20046;-47
2021/10/30 03:28:13;;;;;;;7.35;4.15;;;;;;;13.07;93.85;100269.41;4993274;28;20038;-46
2021/10/30 03:30:42;;;;;;;9.05;4.60;;;;;;;13.09;93.68;100273.47;4993994;28;20081;-45
2021/10/30 03:33:10;;;;;;;7.53;4.55;;;;;;;13.12;93.35;100272.88;4993831;28;20045;-48
2021/10/30 03:35:39;;;;;;;8.77;4.70;;;;;;;13.12;93.00;100278.34;4994090;28;20073;-47
2021/10/30 03:38:06;;;;;;;6.68;4.40;;;;;;;13.11;92.93;100271.25;4993091;28;20088;-46
2021/10/30 03:40:34;;;;;;;10.90;4.80;;;;;;;13.12;93.03;100264.66;4993334;28;20509;-46
2021/10/30 03:43:02;;;;;;;6.88;4.20;;;;;;;13.11;92.36;100251.31;4993141;28;20058;-47
2021/10/30 03:45:30;;;;;;;8.55;4.28;;;;;;;13.07;92.62;100251.09;4992991;28;20073;-47
2021/10/30 03:47:57;;;;;;;9.98;4.40;;;;;;;13.02;92.51;100237.50;4993126;28;20034;-46
2021/10/30 03:50:25;;;;;;;8.68;4.65;;;;;;;12.99;92.25;100233.44;4993570;28;20042;-46
2021/10/30 03:52:52;;;;;;;7.78;4.82;;;;;;;12.93;92.68;100231.06;4993684;28;20043;-46
2021/10/30 03:55:20;;;;;;;8.20;4.28;;;;;;;12.91;93.07;100230.56;4993339;28;20069;-44
2021/10/30 03:57:48;;;;;;;7.75;4.18;;;;;;;12.92;93.28;100229.47;4992640;28;20383;-47
2021/10/30 04:00:15;;;;;;;8.32;4.70;;;;;;;12.94;93.89;100230.78;4992989;28;20046;-47
2021/10/30 04:02:44;;;;;;;9.68;4.43;;;;;;;12.95;93.53;100226.13;4993618;28;20040;-47
2021/10/30 04:05:13;;;;;;;6.43;4.13;;;;;;;12.96;92.81;100222.25;4993724;28;20406;-44
2021/10/30 04:07:41;;;;;;;7.38;4.13;;;;;;;12.96;93.30;100228.56;4992913;28;20055;-44
2021/10/30 04:10:09;;;;;;;7.90;3.78;;;;;;;12.97;92.83;100223.91;4992207;28;20042;-46
2021/10/30 04:12:38;;;;;;;8.40;4.20;;;;;;;12.97;93.03;100221.97;4993257;28;20046;-46
2021/10/30 04:15:06;;;;;;;8.90;4.38;;;;;;;13.00;92.63;100228.78;4993021;28;20049;-47
2021/10/30 04:17:35;;;;;;;6.68;4.28;;;;;;;13.01;92.21;100224.91;4992853;28;20051;-45
2021/10/30 04:20:03;;;;;;;8.95;4.82;;;;;;;13.01;92.39;100219.44;4993185;28;20037;-48
2021/10/30 04:22:31;;;;;;;9.52;4.45;;;;;;;13.02;92.18;100215.63;4993189;28;20050;-46
2021/10/30 04:24:59;;;;;;;10.90;4.75;;;;;;;13.00;92.38;100218.63;4993742;28;20545;-46
2021/10/30 04:27:26;;;;;;;7.90;4.30;;;;;;;13.01;92.32;100219.44;4993434;28;20054;-46
2021/10/30 04:29:54;;;;;;;9.63;4.80;;;;;;;13.03;92.16;100219.16;4993493;28;20046;-48
2021/10/30 04:32:22;;;;;;;9.77;4.88;;;;;;;13.03;91.64;100213.69;4989926;28;20051;-47
2021/10/30 04:35:04;;;;;;;13.02;5.35;;;;;;;13.02;91.45;100210.16;4992801;28;20096;-47
2021/10/30 04:37:32;;;;;;;9.40;4.25;;;;;;;13.05;91.62;100212.28;4992929;28;20045;-47
2021/10/30 04:40:00;;;;;;;9.43;4.65;;;;;;;13.05;91.14;100208.72;4992093;28;20104;-46
2021/10/30 04:42:27;;;;;;;11.07;5.05;;;;;;;13.02;91.17;100212.88;4990643;28;20065;-47
2021/10/30 04:44:55;;;;;;;10.40;5.60;;;;;;;12.98;90.77;100220.06;4991980;28;20490;-43
2021/10/30 04:47:24;;;;;;;10.10;5.18;;;;;;;12.97;91.63;100212.97;4992638;28;20125;-43
2021/10/30 04:49:52;;;;;;;11.82;5.32;;;;;;;12.96;90.78;100216.78;4992687;28;20034;-47
2021/10/30 04:52:19;;;;;;;11.88;5.38;;;;;;;12.98;90.09;100209.91;4991434;28;20046;-46
2021/10/30 04:54:47;;;;;;;8.43;5.28;;;;;;;13.00;90.09;100202.22;4992141;28;20524;-47
2021/10/30 04:57:15;;;;;;;10.85;5.63;;;;;;;13.02;89.82;100203.88;4994818;28;20084;-47
2021/10/30 04:59:42;;;;;;;8.95;5.35;;;;;;;13.02;89.93;100192.94;4996741;28;20042;-46
2021/10/30 05:02:10;;;;;;;10.05;5.30;;;;;;;13.02;90.22;100192.94;4996085;28;20520;-46
2021/10/30 05:04:38;;;;;;;10.18;5.15;;;;;;;13.04;89.89;100197.00;4996182;28;20093;-46
2021/10/30 05:07:05;;;;;;;8.48;5.38;;;;;;;13.02;89.93;100193.72;4996294;28;20490;-47
2021/10/30 05:09:33;;;;;;;10.73;5.13;;;;;;;13.02;89.78;100182.78;4995783;28;20042;-47
2021/10/30 05:12:00;;;;;;;11.18;5.15;;;;;;;12.99;89.87;100180.66;4996257;28;20038;-47
2021/10/30 05:14:28;;;;;;;9.65;4.63;;;;;;;12.98;90.27;100181.75;4995787;28;20597;-46
2021/10/30 05:16:56;;;;;;;11.27;5.00;;;;;;;12.98;90.38;100173.56;4996304;28;20464;-46
2021/10/30 05:19:23;;;;;;;10.48;4.60;;;;;;;12.96;90.21;100173.03;4996103;28;20050;-46
2021/10/30 05:21:51;;;;;;;9.15;4.70;;;;;;;12.95;90.37;100165.97;4995979;28;20046;-44
2021/10/30 05:24:18;;;;;;;12.82;5.00;;;;;;;12.97;90.97;100163.75;4995451;28;20046;-46
2021/10/30 05:26:46;;;;;;;11.27;4.82;;;;;;;12.99;90.67;100165.06;4996290;28;20042;-46
2021/10/30 05:29:13;;;;;;;11.02;5.20;;;;;;;12.96;90.88;100148.44;4996008;28;20417;-47
2021/10/30 05:31:41;;;;;;;9.70;5.07;;;;;;;12.95;90.46;100160.50;4996098;28;20118;-48
2021/10/30 05:34:09;;;;;;;12.10;5.10;;;;;;;12.92;90.96;100150.16;4995513;28;20046;-46
2021/10/30 05:37:11;;;;;;;10.55;5.10;;;;;;;12.87;91.58;100142.03;4995308;28;20422;-47
2021/10/30 05:39:50;;;;;;;12.13;5.13;;;;;;;12.85;91.34;100130.59;5010733;28;20501;-47
2021/10/30 05:42:18;;;;;;;16.45;5.53;;;;;;;12.85;91.77;100119.66;4995817;28;20149;-46
2021/10/30 05:44:46;;;;;;;10.15;4.60;;;;;;;12.87;91.58;100133.81;4995270;28;20034;-48
2021/10/30 05:47:15;;;;;;;12.75;5.20;;;;;;;12.88;91.83;100121.78;4994075;28;20584;-46
2021/10/30 05:49:43;;;;;;;10.13;5.18;;;;;;;12.83;91.84;100119.16;4995736;28;20069;-48
2021/10/30 05:52:12;;;;;;;7.30;4.35;;;;;;;12.78;92.30;100118.13;4995345;28;20564;-46
2021/10/30 05:54:39;;;;;;;9.07;4.93;;;;;;;12.77;92.65;100111.03;4995367;28;20058;-46
2021/10/30 05:57:11;;;;;;;8.43;4.45;;;;;;;12.78;92.81;100117.31;4995179;28;20050;-47
2021/10/30 05:59:39;;;;;;;11.68;5.70;;;;;;;12.77;92.89;100121.97;4995353;28;20054;-47
2021/10/30 06:02:11;;;;;;;7.85;4.53;;;;;;;12.77;92.48;100118.41;4995199;28;20042;-47
2021/10/30 06:04:40;;;;;;;11.02;4.80;;;;;;;12.77;92.55;100121.16;4995040;28;20066;-46
2021/10/30 06:07:09;;;;;;;9.02;4.80;;;;;;;12.73;92.52;100120.94;4994418;28;20461;-47
2021/10/30 06:09:37;;;;;;;12.00;4.85;;;;;;;12.70;92.78;100116.09;4296408;28;10000832;-49
2021/10/30 06:12:05;;;;;;;9.25;4.63;;;;;;;12.72;93.23;100124.81;4993287;28;20084;-48
2021/10/30 06:14:32;;;;;;;11.55;5.30;;;;;;;12.73;93.15;100126.41;4993220;28;20042;-48
2021/10/30 06:17:00;;;;;;;9.65;4.90;;;;;;;12.73;93.15;100126.41;4992543;28;20076;-47
2021/10/30 06:19:28;;;;;;;11.18;5.03;;;;;;;12.70;93.27;100123.44;4992876;28;20489;-47
2021/10/30 06:21:56;;;;;;;10.55;5.03;;;;;;;12.67;93.59;100124.06;4992655;28;20057;-49
2021/10/30 06:24:23;;;;;;;9.75;5.10;;;;;;;12.63;94.08;100120.28;4992747;28;20114;-48
2021/10/30 06:26:51;;;;;;;10.27;5.40;;;;;;;12.58;93.95;100123.94;4992348;28;20773;-47
2021/10/30 06:29:18;;;;;;;9.77;5.15;;;;;;;12.55;94.68;100133.56;4992883;28;20054;-45
2021/10/30 06:31:46;;;;;;;8.25;4.82;;;;;;;12.54;94.47;100133.84;4992552;28;20038;-48
2021/10/30 06:34:14;;;;;;;10.07;4.82;;;;;;;12.51;94.81;100118.06;4992688;28;20501;-44
2021/10/30 06:36:42;;;;;;;10.05;4.97;;;;;;;12.50;95.21;100124.59;4992020;28;20042;-45
2021/10/30 06:39:09;;;;;;;9.82;5.35;;;;;;;12.50;95.43;100124.59;4987975;28;20042;-44
2021/10/30 06:41:47;;;;;;;9.73;4.90;;;;;;;12.46;95.30;100120.84;4979252;28;20050;-44
2021/10/30 06:44:16;;;;;;;7.78;4.68;;;;;;;12.47;95.44;100100.63;4992369;28;20046;-45
2021/10/30 06:47:17;;;;;;;9.75;4.82;;;;;;;12.47;95.77;100100.63;4930930;29;20067;-47
2021/10/30 06:49:45;;;;;;;10.13;5.20;;;;;;;12.49;95.99;100109.34;4927843;29;20047;-46
2021/10/30 06:52:12;;;;;;;16.08;5.00;;;;;;;12.52;95.74;100111.47;4931741;29;20114;-47
2021/10/30 06:54:40;;;;;;;9.98;5.22;;;;;;;12.52;95.60;100116.94;4933125;29;20444;-47
2021/10/30 06:57:08;;;;;;;11.32;5.30;;;;;;;12.51;95.89;100104.38;4934395;29;20495;-45
2021/10/30 06:59:36;;;;;;;10.02;5.10;;;;;;;12.55;95.64;100099.94;4934168;29;20064;-46
2021/10/30 07:02:04;;;;;;;12.70;5.47;;;;;;;12.55;95.51;100094.47;4934083;29;20052;-47
2021/10/30 07:04:35;;;;;;;10.90;5.10;;;;;;;12.55;95.21;100097.19;4954831;28;20418;-46
2021/10/30 07:07:03;;;;;;;10.65;5.30;;;;;;;12.55;95.60;100095.31;4994387;28;20050;-46
2021/10/30 07:09:30;;;;;;;9.45;5.32;;;;;;;12.56;95.19;100096.09;4994132;28;20038;-46
2021/10/30 07:11:58;;;;;;;10.20;5.35;;;;;;;12.58;95.06;100088.41;4994437;28;20042;-46
2021/10/30 07:14:45;;;;;;;11.23;5.30;;;;;;;12.59;95.42;100095.50;4983701;28;20512;-47
2021/10/30 07:17:13;;;;;;;11.60;5.25;;;;;;;12.59;95.16;100092.75;4993778;28;20038;-45
2021/10/30 07:19:40;;;;;;;8.32;4.55;;;;;;;12.60;95.00;100085.38;4993111;28;20050;-48
2021/10/30 07:22:08;;;;;;;8.25;4.60;;;;;;;12.59;94.95;100070.91;4994291;28;20058;-46
2021/10/30 07:24:35;;;;;;;9.27;4.63;;;;;;;12.59;95.80;100081.84;4993879;28;20042;-44
2021/10/30 07:27:03;;;;;;;8.05;4.88;;;;;;;12.61;95.45;100078.81;4994599;28;20042;-48
2021/10/30 07:29:31;;;;;;;8.82;4.30;;;;;;;12.59;95.29;100081.84;4992555;28;20043;-46
2021/10/30 07:31:58;;;;;;;11.02;4.82;;;;;;;12.60;95.54;100069.78;4993442;28;20417;-46
2021/10/30 07:34:26;;;;;;;8.65;4.70;;;;;;;12.60;95.34;100075.25;4991345;28;20045;-47
2021/10/30 07:36:54;;;;;;;8.77;4.50;;;;;;;12.60;95.76;100074.44;4993808;28;20056;-47
2021/10/30 07:39:22;;;;;;;8.10;4.40;;;;;;;12.58;95.32;100063.81;4993524;28;20405;-47
2021/10/30 07:41:50;;;;;;;10.98;4.70;;;;;;;12.56;95.23;100055.91;4993814;28;20058;-48
2021/10/30 07:44:18;;;;;;;10.27;4.35;;;;;;;12.56;95.77;100072.31;4993213;28;20445;-46
2021/10/30 07:46:46;;;;;;;7.32;4.57;;;;;;;12.58;95.82;100064.63;4992035;28;20054;-48
2021/10/30 07:49:14;;;;;;;11.02;4.80;;;;;;;12.58;95.81;100064.63;4993097;28;20041;-46
2021/10/30 07:51:42;;;;;;;8.73;4.63;;;;;;;12.59;95.71;100062.72;4993454;28;20064;-48
2021/10/30 07:54:10;;;;;;;7.53;4.30;;;;;;;12.57;95.32;100070.38;4993436;28;20050;-47
2021/10/30 07:56:37;;;;;;;15.90;4.95;;;;;;;12.54;96.22;100073.72;4992889;28;20050;-48
2021/10/30 07:59:05;;;;;;;7.57;4.13;;;;;;;12.54;96.42;100071.00;4993299;28;20043;-49
2021/10/30 08:01:33;;;;;;;8.25;4.82;;;;;;;12.53;96.53;100063.88;4993300;28;20051;-50
2021/10/30 08:04:01;;;;;;;9.93;4.13;;;;;;;12.54;96.24;100073.72;4993025;28;20038;-47
2021/10/30 08:06:29;;;;;;;9.68;4.88;;;;;;;12.50;95.78;100059.03;4992999;28;20042;-47
2021/10/30 08:08:56;;;;;;;11.00;5.45;;;;;;;12.49;95.99;100065.63;4992752;28;20417;-46
2021/10/30 08:11:26;;;;;;;12.00;6.28;;;;;;;12.51;96.42;100063.41;4993124;28;20484;-47
2021/10/30 08:13:53;;;;;;;13.30;5.75;;;;;;;12.58;96.36;100052.91;4993026;28;20043;-46
2021/10/30 08:16:21;;;;;;;12.60;5.00;;;;;;;12.58;95.63;100052.91;4992959;28;20042;-47
2021/10/30 08:18:49;;;;;;;9.73;5.38;;;;;;;12.56;96.38;100046.91;4992660;28;20046;-46
2021/10/30 08:21:17;;;;;;;11.00;4.85;;;;;;;12.57;96.50;100046.59;4992892;28;20060;-48
2021/10/30 08:23:44;;;;;;;13.57;4.78;;;;;;;12.58;96.69;100058.38;4992954;28;20169;-46
2021/10/30 08:26:12;;;;;;;9.20;4.55;;;;;;;12.57;96.39;100040.31;4992503;28;20045;-46
2021/10/30 08:28:40;;;;;;;9.95;5.13;;;;;;;12.54;96.36;100049.13;4993031;28;20034;-46
2021/10/30 08:31:07;;;;;;;9.80;4.38;;;;;;;12.55;96.50;100037.09;4991394;28;20057;-47
2021/10/30 08:33:35;;;;;;;8.93;4.50;;;;;;;12.58;96.42;100052.91;4992790;28;20046;-43
2021/10/30 08:36:05;;;;;;;10.20;5.45;;;;;;;12.55;96.67;100037.91;4989579;28;20080;-44
2021/10/30 08:38:33;;;;;;;10.02;5.65;;;;;;;12.56;97.05;100033.25;4992017;28;20046;-47
2021/10/30 08:41:03;;;;;;;12.52;5.50;;;;;;;12.56;96.33;100034.06;4992173;28;20114;-46
2021/10/30 08:43:30;;;;;;;10.88;5.60;;;;;;;12.60;96.23;100034.25;4992630;28;20062;-45
2021/10/30 08:45:59;;;;;;;12.18;5.25;;;;;;;12.58;96.69;100031.03;4991731;28;20101;-46
2021/10/30 08:48:31;;;;;;;11.57;5.05;;;;;;;12.58;96.24;100031.03;4992346;28;20039;-46
2021/10/30 08:51:02;;;;;;;10.55;4.72;;;;;;;12.57;96.45;100032.13;4992621;28;20054;-43
2021/10/30 08:53:31;;;;;;;9.55;4.80;;;;;;;12.58;97.14;100023.63;4991454;28;20088;-48
2021/10/30 08:56:03;;;;;;;10.43;5.00;;;;;;;12.60;96.69;100014.31;4992491;28;20053;-43
2021/10/30 08:58:32;;;;;;;8.43;4.55;;;;;;;12.62;97.20;100031.22;4983387;28;20047;-46
2021/10/30 09:01:03;;;;;;;9.50;4.82;;;;;;;12.63;97.07;100027.38;4991802;28;20035;-45
2021/10/30 09:03:32;;;;;;;7.25;4.40;;;;;;;12.62;97.22;100037.50;4992668;28;20088;-47
2021/10/30 09:06:00;;;;;;;7.30;4.40;;;;;;;12.57;97.24;100032.94;4992462;28;20046;-46
2021/10/30 09:08:29;;;;;;;8.45;4.72;;;;;;;12.55;97.31;100026.97;4991105;28;20046;-46
2021/10/30 09:11:11;;;;;;;8.70;4.55;;;;;;;12.56;97.59;100022.31;4992143;28;20046;-47
2021/10/30 09:13:39;;;;;;;8.85;4.25;;;;;;;12.57;97.85;100021.19;4992282;28;20405;-47
2021/10/30 09:16:09;;;;;;;9.63;4.15;;;;;;;12.58;97.83;100031.84;4992253;28;20046;-45
2021/10/30 09:18:37;;;;;;;7.47;4.43;;;;;;;12.60;98.02;100030.72;4992464;28;20395;-48
2021/10/30 09:21:05;;;;;;;9.18;5.22;;;;;;;12.61;97.86;100027.69;4990848;28;20464;-45
2021/10/30 09:23:37;;;;;;;7.80;4.65;;;;;;;12.59;98.44;100032.66;4992124;28;20046;-44
2021/10/30 09:26:07;;;;;;;8.02;4.75;;;;;;;12.57;97.90;100032.94;4992428;28;20034;-45
2021/10/30 09:28:47;;;;;;;9.85;6.00;;;;;;;12.55;97.93;100026.97;4990883;28;20516;-46
2021/10/30 09:31:17;;;;;;;9.75;4.50;;;;;;;12.56;98.10;100025.06;4991923;28;20046;-47
2021/10/30 09:34:04;;;;;;;7.65;4.32;;;;;;;12.53;98.66;100025.63;4992462;28;20445;-47
2021/10/30 09:36:38;;;;;;;9.00;4.85;;;;;;;12.56;98.95;100016.84;4991487;28;20042;-47
2021/10/30 09:39:10;;;;;;;10.57;4.75;;;;;;;12.57;99.34;100029.41;4989009;28;20078;-48
2021/10/30 09:41:45;;;;;;;7.35;4.75;;;;;;;12.57;98.77;100026.66;4991150;28;20045;-48
2021/10/30 09:44:19;;;;;;;8.77;4.30;;;;;;;12.58;99.23;100020.91;4994737;28;20501;-48
2021/10/30 09:46:59;;;;;;;9.45;4.60;;;;;;;12.57;99.31;100029.41;4993028;28;20034;-45
2021/10/30 09:49:31;;;;;;;8.15;4.20;;;;;;;12.56;100.00;100022.31;4995801;28;20386;-48
2021/10/30 09:52:08;;;;;;;8.82;4.47;;;;;;;12.55;100.00;100031.63;4995088;28;20053;-46
2021/10/30 09:54:41;;;;;;;6.75;4.63;;;;;;;12.58;100.00;100022.84;4995347;28;20074;-45
2021/10/30 09:57:16;;;;;;;8.38;4.43;;;;;;;12.56;100.00;100023.13;4992797;28;20121;-45
2021/10/30 09:59:45;;;;;;;8.68;4.80;;;;;;;12.54;100.00;100013.59;4988813;28;20050;-43
2021/10/30 10:02:13;;;;;;;8.48;4.50;;;;;;;12.50;100.00;100018.03;4994728;28;20042;-45
2021/10/30 10:04:42;;;;;;;8.05;4.20;;;;;;;12.50;100.00;100020.78;5009478;28;20062;-46
2021/10/30 10:07:11;;;;;;;8.73;4.70;;;;;;;12.50;100.00;100012.59;4990648;28;20053;-49
2021/10/30 10:09:39;;;;;;;7.45;4.25;;;;;;;12.50;100.00;100020.78;4994786;28;20050;-46
2021/10/30 10:12:14;;;;;;;8.27;4.68;;;;;;;12.50;100.00;100010.66;4994346;28;20049;-46
2021/10/30 10:14:42;;;;;;;7.70;4.30;;;;;;;12.49;100.00;100011.78;4994418;28;20116;-46
2021/10/30 10:17:11;;;;;;;9.73;4.35;;;;;;;12.52;100.00;100007.63;4994079;28;20116;-43
2021/10/30 10:19:40;;;;;;;9.15;4.60;;;;;;;12.55;100.00;100001.56;4990082;28;20038;-43
2021/10/30 10:22:08;;;;;;;13.38;4.10;;;;;;;12.57;100.00;100004.81;5009142;28;20075;-45
2021/10/30 10:24:37;;;;;;;8.40;4.28;;;;;;;12.58;100.00;100003.72;4993077;28;20484;-45
2021/10/30 10:27:06;;;;;;;9.73;4.30;;;;;;;12.58;100.00;100003.72;4994342;28;20046;-48
2021/10/30 10:29:37;;;;;;;9.40;4.45;;;;;;;12.59;100.00;99999.84;4994188;28;20053;-46
2021/10/30 10:32:09;;;;;;;7.65;4.00;;;;;;;12.58;100.00;100000.97;4994326;28;20050;-47
2021/10/30 10:34:41;;;;;;;8.48;3.88;;;;;;;12.59;100.00;99991.66;4994838;28;20049;-48
2021/10/30 10:37:12;;;;;;;6.53;3.80;;;;;;;12.61;100.00;99983.16;4991529;28;20042;-48
2021/10/30 10:39:41;;;;;;;10.20;4.50;;;;;;;12.62;100.00;99987.50;4993798;28;20053;-46
2021/10/30 10:42:12;;;;;;;7.38;4.20;;;;;;;12.61;100.00;99986.69;4994065;28;20390;-46
2021/10/30 10:44:44;;;;;;;9.05;4.15;;;;;;;12.62;100.00;99982.84;4994349;28;20054;-45
2021/10/30 10:47:39;;;;;;;6.38;3.70;;;;;;;12.63;100.00;99979.00;4994116;28;20050;-47
2021/10/30 10:50:35;;;;;;;8.57;4.07;;;;;;;12.63;100.00;99979.00;4994233;28;20050;-46
2021/10/30 10:53:08;;;;;;;6.88;3.75;;;;;;;12.62;100.00;99977.38;4993852;28;20042;-45
2021/10/30 10:55:38;;;;;;;9.38;4.50;;;;;;;12.61;100.00;99978.50;4992984;28;20042;-46
2021/10/30 10:58:07;;;;;;;7.60;3.78;;;;;;;12.63;100.00;99984.47;4988914;28;20031;-47
2021/10/30 11:00:39;;;;;;;8.63;4.60;;;;;;;12.66;100.00;99977.59;4990690;28;20042;-47
2021/10/30 11:03:07;;;;;;;7.50;3.83;;;;;;;12.67;100.00;99962.81;4992256;28;20077;-46
2021/10/30 11:05:35;;;;;;;6.35;3.90;;;;;;;12.68;100.00;99957.03;4993534;28;20041;-47
2021/10/30 11:08:23;;;;;;;8.57;3.95;;;;;;;12.70;100.00;99959.47;4992599;28;20048;-46
2021/10/30 11:11:10;;;;;;;8.50;3.80;;;;;;;12.71;100.00;99947.44;4993215;28;20046;-46
2021/10/30 11:13:47;;;;;;;7.25;4.18;;;;;;;12.72;100.00;99949.03;4992365;28;20497;-47
2021/10/30 11:16:22;;;;;;;7.03;3.60;;;;;;;12.76;100.00;99939.94;4992358;28;20041;-46
2021/10/30 11:19:03;;;;;;;4.97;3.35;;;;;;;12.77;100.00;99941.56;4993491;28;20043;-47
2021/10/30 11:21:38;;;;;;;7.10;3.88;;;;;;;12.79;100.00;99943.97;4989564;28;20046;-47
2021/10/30 11:24:21;;;;;;;7.40;3.80;;;;;;;12.81;100.00;99938.22;4992964;28;20059;-46
2021/10/30 11:27:01;;;;;;;7.53;4.10;;;;;;;12.83;100.00;99946.94;4993576;28;20489;-46
2021/10/30 11:29:29;;;;;;;7.75;3.88;;;;;;;12.84;100.00;99945.78;4993414;28;20042;-50
2021/10/30 11:31:59;;;;;;;7.03;3.80;;;;;;;12.85;100.00;99941.97;4993533;28;20101;-46